sensor_id;sensor_type;location;lat;lon;timestamp;P1;durP1;ratioP1;P2;durP2;ratioP2
10201;SDS011;5143;42.584;23.164;2023-03-21T00:02:02;13.47;;;6.77;;
10201;SDS011;5143;42.584;23.164;2023-03-21T00:04:29;15.10;;;7.67;;
10201;SDS011;5143;42.584;23.164;2023-03-21T00:06:56;12.10;;;6.50;;
10201;SDS011;5143;42.584;23.164;2023-03-21T00:09:23;11.90;;;5.40;;
10201;SDS011;5143;42.584;23.164;2023-03-21T00:11:50;11.20;;;5.43;;
10201;SDS011;5143;42.584;23.164;2023-03-21T00:14:16;19.90;;;6.23;;
10201;SDS011;5143;42.584;23.164;2023-03-21T00:16:44;11.43;;;5.77;;
10201;SDS011;5143;42.584;23.164;2023-03-21T00:19:16;14.23;;;5.73;;
10201;SDS011;5143;42.584;23.164;2023-03-21T00:21:43;11.47;;;5.83;;
10201;SDS011;5143;42.584;23.164;2023-03-21T00:24:10;14.03;;;6.67;;
10201;SDS011;5143;42.584;23.164;2023-03-21T00:26:37;11.27;;;5.73;;
10201;SDS011;5143;42.584;23.164;2023-03-21T00:29:04;13.30;;;6.50;;
10201;SDS011;5143;42.584;23.164;2023-03-21T00:31:31;11.97;;;6.50;;
10201;SDS011;5143;42.584;23.164;2023-03-21T00:33:58;10.53;;;6.13;;
10201;SDS011;5143;42.584;23.164;2023-03-21T00:36:26;10.50;;;5.17;;
10201;SDS011;5143;42.584;23.164;2023-03-21T00:38:53;9.87;;;5.77;;
10201;SDS011;5143;42.584;23.164;2023-03-21T00:41:20;9.30;;;5.40;;
10201;SDS011;5143;42.584;23.164;2023-03-21T00:43:47;15.77;;;5.70;;
10201;SDS011;5143;42.584;23.164;2023-03-21T00:46:16;8.30;;;4.40;;
10201;SDS011;5143;42.584;23.164;2023-03-21T00:48:42;16.47;;;5.27;;
10201;SDS011;5143;42.584;23.164;2023-03-21T00:51:10;9.33;;;4.67;;
10201;SDS011;5143;42.584;23.164;2023-03-21T00:53:41;9.13;;;5.03;;
10201;SDS011;5143;42.584;23.164;2023-03-21T00:56:08;8.33;;;4.57;;
10201;SDS011;5143;42.584;23.164;2023-03-21T00:58:35;13.67;;;5.80;;
10201;SDS011;5143;42.584;23.164;2023-03-21T01:01:02;11.43;;;5.40;;
10201;SDS011;5143;42.584;23.164;2023-03-21T01:03:31;11.73;;;4.40;;
10201;SDS011;5143;42.584;23.164;2023-03-21T01:06:06;6.23;;;3.53;;
10201;SDS011;5143;42.584;23.164;2023-03-21T01:08:38;14.37;;;4.50;;
10201;SDS011;5143;42.584;23.164;2023-03-21T01:11:08;6.77;;;4.30;;
10201;SDS011;5143;42.584;23.164;2023-03-21T01:13:37;12.13;;;4.90;;
10201;SDS011;5143;42.584;23.164;2023-03-21T01:16:04;10.70;;;5.00;;
10201;SDS011;5143;42.584;23.164;2023-03-21T01:18:33;20.17;;;5.33;;
10201;SDS011;5143;42.584;23.164;2023-03-21T01:21:01;7.33;;;4.30;;
10201;SDS011;5143;42.584;23.164;2023-03-21T01:23:32;5.63;;;3.90;;
10201;SDS011;5143;42.584;23.164;2023-03-21T01:25:59;9.37;;;5.03;;
10201;SDS011;5143;42.584;23.164;2023-03-21T01:28:27;11.80;;;6.90;;
10201;SDS011;5143;42.584;23.164;2023-03-21T01:30:54;17.73;;;5.57;;
10201;SDS011;5143;42.584;23.164;2023-03-21T01:33:21;12.93;;;6.13;;
10201;SDS011;5143;42.584;23.164;2023-03-21T01:35:50;13.47;;;6.40;;
10201;SDS011;5143;42.584;23.164;2023-03-21T01:38:16;11.73;;;5.20;;
10201;SDS011;5143;42.584;23.164;2023-03-21T01:40:44;11.10;;;5.40;;
10201;SDS011;5143;42.584;23.164;2023-03-21T01:43:20;15.50;;;5.17;;
10201;SDS011;5143;42.584;23.164;2023-03-21T01:49:00;12.20;;;5.40;;
10201;SDS011;5143;42.584;23.164;2023-03-21T01:51:34;10.13;;;5.10;;
10201;SDS011;5143;42.584;23.164;2023-03-21T01:54:04;10.23;;;5.63;;
10201;SDS011;5143;42.584;23.164;2023-03-21T01:56:36;11.73;;;6.00;;
10201;SDS011;5143;42.584;23.164;2023-03-21T01:59:05;11.10;;;5.20;;
10201;SDS011;5143;42.584;23.164;2023-03-21T02:01:38;13.30;;;5.00;;
10201;SDS011;5143;42.584;23.164;2023-03-21T02:04:06;10.20;;;5.30;;
10201;SDS011;5143;42.584;23.164;2023-03-21T02:06:36;9.23;;;4.63;;
10201;SDS011;5143;42.584;23.164;2023-03-21T02:09:10;8.47;;;4.30;;
10201;SDS011;5143;42.584;23.164;2023-03-21T02:11:40;11.57;;;5.03;;
10201;SDS011;5143;42.584;23.164;2023-03-21T02:14:11;13.60;;;5.17;;
10201;SDS011;5143;42.584;23.164;2023-03-21T02:16:47;10.77;;;4.33;;
10201;SDS011;5143;42.584;23.164;2023-03-21T02:19:30;7.17;;;4.07;;
10201;SDS011;5143;42.584;23.164;2023-03-21T02:25:17;9.67;;;4.37;;
10201;SDS011;5143;42.584;23.164;2023-03-21T02:27:57;10.50;;;4.90;;
10201;SDS011;5143;42.584;23.164;2023-03-21T02:30:37;8.07;;;4.60;;
10201;SDS011;5143;42.584;23.164;2023-03-21T02:36:20;8.63;;;4.63;;
10201;SDS011;5143;42.584;23.164;2023-03-21T02:38:58;8.67;;;4.33;;
10201;SDS011;5143;42.584;23.164;2023-03-21T02:41:35;13.47;;;5.13;;
10201;SDS011;5143;42.584;23.164;2023-03-21T02:44:12;10.30;;;4.67;;
10201;SDS011;5143;42.584;23.164;2023-03-21T02:46:47;12.53;;;5.70;;
10201;SDS011;5143;42.584;23.164;2023-03-21T02:49:20;14.17;;;4.73;;
10201;SDS011;5143;42.584;23.164;2023-03-21T02:51:52;10.20;;;4.70;;
10201;SDS011;5143;42.584;23.164;2023-03-21T02:54:22;8.97;;;4.90;;
10201;SDS011;5143;42.584;23.164;2023-03-21T02:56:51;9.17;;;4.50;;
10201;SDS011;5143;42.584;23.164;2023-03-21T02:59:21;7.47;;;4.77;;
10201;SDS011;5143;42.584;23.164;2023-03-21T03:01:50;8.60;;;4.90;;
10201;SDS011;5143;42.584;23.164;2023-03-21T03:04:18;11.63;;;5.87;;
10201;SDS011;5143;42.584;23.164;2023-03-21T03:06:51;14.80;;;6.27;;
10201;SDS011;5143;42.584;23.164;2023-03-21T03:09:41;18.13;;;6.50;;
10201;SDS011;5143;42.584;23.164;2023-03-21T03:12:21;16.60;;;7.00;;
10201;SDS011;5143;42.584;23.164;2023-03-21T03:14:58;13.33;;;6.47;;
10201;SDS011;5143;42.584;23.164;2023-03-21T03:17:42;15.80;;;7.03;;
10201;SDS011;5143;42.584;23.164;2023-03-21T03:20:23;16.10;;;7.17;;
10201;SDS011;5143;42.584;23.164;2023-03-21T03:23:04;12.20;;;6.70;;
10201;SDS011;5143;42.584;23.164;2023-03-21T03:25:41;10.23;;;6.30;;
10201;SDS011;5143;42.584;23.164;2023-03-21T03:28:11;10.30;;;5.83;;
10201;SDS011;5143;42.584;23.164;2023-03-21T03:30:41;14.87;;;6.47;;
10201;SDS011;5143;42.584;23.164;2023-03-21T03:33:10;13.07;;;6.23;;
10201;SDS011;5143;42.584;23.164;2023-03-21T03:35:41;13.07;;;5.57;;
10201;SDS011;5143;42.584;23.164;2023-03-21T03:38:08;8.93;;;5.33;;
10201;SDS011;5143;42.584;23.164;2023-03-21T03:40:38;10.60;;;5.93;;
10201;SDS011;5143;42.584;23.164;2023-03-21T03:43:09;15.07;;;7.47;;
10201;SDS011;5143;42.584;23.164;2023-03-21T03:45:41;14.67;;;7.87;;
10201;SDS011;5143;42.584;23.164;2023-03-21T03:48:13;16.67;;;9.00;;
10201;SDS011;5143;42.584;23.164;2023-03-21T03:50:49;18.50;;;8.70;;
10201;SDS011;5143;42.584;23.164;2023-03-21T03:53:20;19.57;;;9.87;;
10201;SDS011;5143;42.584;23.164;2023-03-21T03:55:52;14.37;;;8.63;;
10201;SDS011;5143;42.584;23.164;2023-03-21T03:58:21;17.80;;;8.27;;
10201;SDS011;5143;42.584;23.164;2023-03-21T04:00:49;14.80;;;8.20;;
10201;SDS011;5143;42.584;23.164;2023-03-21T04:03:17;17.00;;;7.53;;
10201;SDS011;5143;42.584;23.164;2023-03-21T04:05:43;23.83;;;8.43;;
10201;SDS011;5143;42.584;23.164;2023-03-21T04:08:11;18.27;;;8.20;;
10201;SDS011;5143;42.584;23.164;2023-03-21T04:10:38;18.27;;;10.73;;
10201;SDS011;5143;42.584;23.164;2023-03-21T04:13:06;17.40;;;7.83;;
10201;SDS011;5143;42.584;23.164;2023-03-21T04:15:33;14.47;;;7.00;;
10201;SDS011;5143;42.584;23.164;2023-03-21T04:18:00;17.30;;;7.50;;
10201;SDS011;5143;42.584;23.164;2023-03-21T04:20:27;20.73;;;7.17;;
10201;SDS011;5143;42.584;23.164;2023-03-21T04:22:53;19.10;;;8.17;;
10201;SDS011;5143;42.584;23.164;2023-03-21T04:25:20;16.73;;;7.43;;
10201;SDS011;5143;42.584;23.164;2023-03-21T04:27:47;13.77;;;7.30;;
10201;SDS011;5143;42.584;23.164;2023-03-21T04:30:15;25.57;;;6.83;;
10201;SDS011;5143;42.584;23.164;2023-03-21T04:32:43;14.43;;;6.57;;
10201;SDS011;5143;42.584;23.164;2023-03-21T04:35:20;12.67;;;5.60;;
10201;SDS011;5143;42.584;23.164;2023-03-21T04:37:48;8.27;;;5.07;;
10201;SDS011;5143;42.584;23.164;2023-03-21T04:40:15;10.00;;;5.20;;
10201;SDS011;5143;42.584;23.164;2023-03-21T04:42:43;9.53;;;4.90;;
10201;SDS011;5143;42.584;23.164;2023-03-21T04:45:10;13.93;;;5.57;;
10201;SDS011;5143;42.584;23.164;2023-03-21T04:47:38;17.63;;;6.03;;
10201;SDS011;5143;42.584;23.164;2023-03-21T04:50:06;13.27;;;6.00;;
10201;SDS011;5143;42.584;23.164;2023-03-21T04:52:33;15.80;;;6.17;;
10201;SDS011;5143;42.584;23.164;2023-03-21T04:55:00;10.90;;;5.20;;
10201;SDS011;5143;42.584;23.164;2023-03-21T04:57:27;14.33;;;5.87;;
10201;SDS011;5143;42.584;23.164;2023-03-21T04:59:53;10.93;;;5.70;;
10201;SDS011;5143;42.584;23.164;2023-03-21T05:02:20;26.40;;;6.57;;
10201;SDS011;5143;42.584;23.164;2023-03-21T05:04:48;16.13;;;5.63;;
10201;SDS011;5143;42.584;23.164;2023-03-21T05:07:15;12.87;;;6.03;;
10201;SDS011;5143;42.584;23.164;2023-03-21T05:09:42;11.80;;;5.93;;
10201;SDS011;5143;42.584;23.164;2023-03-21T05:12:08;17.47;;;6.50;;
10201;SDS011;5143;42.584;23.164;2023-03-21T05:14:35;18.30;;;7.97;;
10201;SDS011;5143;42.584;23.164;2023-03-21T05:17:02;17.97;;;8.47;;
10201;SDS011;5143;42.584;23.164;2023-03-21T05:19:30;16.17;;;8.53;;
10201;SDS011;5143;42.584;23.164;2023-03-21T05:22:02;17.77;;;8.77;;
10201;SDS011;5143;42.584;23.164;2023-03-21T05:24:30;21.20;;;9.50;;
10201;SDS011;5143;42.584;23.164;2023-03-21T05:26:58;30.50;;;8.50;;
10201;SDS011;5143;42.584;23.164;2023-03-21T05:29:27;22.93;;;8.83;;
10201;SDS011;5143;42.584;23.164;2023-03-21T05:31:55;26.97;;;7.80;;
10201;SDS011;5143;42.584;23.164;2023-03-21T05:34:22;22.27;;;8.60;;
10201;SDS011;5143;42.584;23.164;2023-03-21T05:36:49;26.33;;;8.67;;
10201;SDS011;5143;42.584;23.164;2023-03-21T05:39:17;15.90;;;7.77;;
10201;SDS011;5143;42.584;23.164;2023-03-21T05:41:44;19.20;;;8.20;;
10201;SDS011;5143;42.584;23.164;2023-03-21T05:44:11;15.67;;;8.27;;
10201;SDS011;5143;42.584;23.164;2023-03-21T05:46:38;15.93;;;8.27;;
10201;SDS011;5143;42.584;23.164;2023-03-21T05:49:05;19.53;;;9.90;;
10201;SDS011;5143;42.584;23.164;2023-03-21T05:51:32;19.03;;;9.73;;
10201;SDS011;5143;42.584;23.164;2023-03-21T05:53:58;29.43;;;8.17;;
10201;SDS011;5143;42.584;23.164;2023-03-21T05:56:26;24.33;;;9.00;;
10201;SDS011;5143;42.584;23.164;2023-03-21T05:58:53;16.27;;;8.60;;
10201;SDS011;5143;42.584;23.164;2023-03-21T06:01:20;18.63;;;8.33;;
10201;SDS011;5143;42.584;23.164;2023-03-21T06:03:46;21.60;;;7.23;;
10201;SDS011;5143;42.584;23.164;2023-03-21T06:06:13;26.50;;;8.23;;
10201;SDS011;5143;42.584;23.164;2023-03-21T06:08:40;16.43;;;8.50;;
10201;SDS011;5143;42.584;23.164;2023-03-21T06:11:08;26.40;;;10.67;;
10201;SDS011;5143;42.584;23.164;2023-03-21T06:13:47;36.63;;;15.77;;
10201;SDS011;5143;42.584;23.164;2023-03-21T06:16:14;22.37;;;13.10;;
10201;SDS011;5143;42.584;23.164;2023-03-21T06:18:40;22.63;;;11.30;;
10201;SDS011;5143;42.584;23.164;2023-03-21T06:21:07;22.27;;;11.57;;
10201;SDS011;5143;42.584;23.164;2023-03-21T06:23:34;25.93;;;10.60;;
10201;SDS011;5143;42.584;23.164;2023-03-21T06:26:01;16.13;;;9.10;;
10201;SDS011;5143;42.584;23.164;2023-03-21T06:28:28;17.87;;;10.00;;
10201;SDS011;5143;42.584;23.164;2023-03-21T06:30:56;60.77;;;32.13;;
10201;SDS011;5143;42.584;23.164;2023-03-21T06:33:23;28.40;;;17.57;;
10201;SDS011;5143;42.584;23.164;2023-03-21T06:35:50;32.00;;;17.17;;
10201;SDS011;5143;42.584;23.164;2023-03-21T06:38:18;29.97;;;16.00;;
10201;SDS011;5143;42.584;23.164;2023-03-21T06:40:44;28.97;;;15.93;;
10201;SDS011;5143;42.584;23.164;2023-03-21T06:43:11;24.47;;;15.80;;
10201;SDS011;5143;42.584;23.164;2023-03-21T06:45:38;24.13;;;16.30;;
10201;SDS011;5143;42.584;23.164;2023-03-21T06:48:06;36.43;;;16.47;;
10201;SDS011;5143;42.584;23.164;2023-03-21T06:50:33;26.97;;;15.70;;
10201;SDS011;5143;42.584;23.164;2023-03-21T06:53:00;26.40;;;11.23;;
10201;SDS011;5143;42.584;23.164;2023-03-21T06:55:27;23.23;;;9.17;;
10201;SDS011;5143;42.584;23.164;2023-03-21T06:57:54;24.70;;;11.07;;
10201;SDS011;5143;42.584;23.164;2023-03-21T07:00:22;25.20;;;13.57;;
10201;SDS011;5143;42.584;23.164;2023-03-21T07:02:49;24.07;;;11.53;;
10201;SDS011;5143;42.584;23.164;2023-03-21T07:05:17;21.33;;;9.33;;
10201;SDS011;5143;42.584;23.164;2023-03-21T07:07:44;23.60;;;9.67;;
10201;SDS011;5143;42.584;23.164;2023-03-21T07:10:12;20.27;;;9.50;;
10201;SDS011;5143;42.584;23.164;2023-03-21T07:12:39;18.63;;;9.53;;
10201;SDS011;5143;42.584;23.164;2023-03-21T07:15:06;26.03;;;10.37;;
10201;SDS011;5143;42.584;23.164;2023-03-21T07:17:34;35.43;;;10.60;;
10201;SDS011;5143;42.584;23.164;2023-03-21T07:20:01;24.13;;;10.57;;
10201;SDS011;5143;42.584;23.164;2023-03-21T07:22:30;23.53;;;10.47;;
10201;SDS011;5143;42.584;23.164;2023-03-21T07:24:56;25.47;;;11.40;;
10201;SDS011;5143;42.584;23.164;2023-03-21T07:27:23;32.37;;;12.83;;
10201;SDS011;5143;42.584;23.164;2023-03-21T07:29:50;23.57;;;11.63;;
10201;SDS011;5143;42.584;23.164;2023-03-21T07:32:16;19.77;;;10.17;;
10201;SDS011;5143;42.584;23.164;2023-03-21T07:34:43;27.43;;;11.63;;
10201;SDS011;5143;42.584;23.164;2023-03-21T07:37:10;24.27;;;9.83;;
10201;SDS011;5143;42.584;23.164;2023-03-21T07:39:38;23.17;;;10.43;;
10201;SDS011;5143;42.584;23.164;2023-03-21T07:42:04;21.90;;;10.90;;
10201;SDS011;5143;42.584;23.164;2023-03-21T07:44:32;27.27;;;11.63;;
10201;SDS011;5143;42.584;23.164;2023-03-21T07:46:58;26.40;;;12.40;;
10201;SDS011;5143;42.584;23.164;2023-03-21T07:49:25;28.43;;;12.20;;
10201;SDS011;5143;42.584;23.164;2023-03-21T07:51:52;25.00;;;12.47;;
10201;SDS011;5143;42.584;23.164;2023-03-21T07:54:18;27.80;;;11.77;;
10201;SDS011;5143;42.584;23.164;2023-03-21T07:56:48;38.83;;;12.63;;
10201;SDS011;5143;42.584;23.164;2023-03-21T07:59:15;30.27;;;12.67;;
10201;SDS011;5143;42.584;23.164;2023-03-21T08:01:41;32.40;;;13.37;;
10201;SDS011;5143;42.584;23.164;2023-03-21T08:04:08;26.63;;;13.07;;
10201;SDS011;5143;42.584;23.164;2023-03-21T08:06:35;39.13;;;14.40;;
10201;SDS011;5143;42.584;23.164;2023-03-21T08:09:02;46.27;;;12.10;;
10201;SDS011;5143;42.584;23.164;2023-03-21T08:11:29;28.53;;;12.27;;
10201;SDS011;5143;42.584;23.164;2023-03-21T08:13:58;26.23;;;11.57;;
10201;SDS011;5143;42.584;23.164;2023-03-21T08:16:25;25.70;;;11.67;;
10201;SDS011;5143;42.584;23.164;2023-03-21T08:18:52;27.03;;;12.00;;
10201;SDS011;5143;42.584;23.164;2023-03-21T08:21:19;26.80;;;11.80;;
10201;SDS011;5143;42.584;23.164;2023-03-21T08:23:46;25.87;;;10.20;;
10201;SDS011;5143;42.584;23.164;2023-03-21T08:26:12;35.63;;;10.90;;
10201;SDS011;5143;42.584;23.164;2023-03-21T08:28:40;24.67;;;9.33;;
10201;SDS011;5143;42.584;23.164;2023-03-21T08:31:08;23.40;;;9.87;;
10201;SDS011;5143;42.584;23.164;2023-03-21T08:33:36;17.53;;;8.80;;
10201;SDS011;5143;42.584;23.164;2023-03-21T08:36:03;29.03;;;9.43;;
10201;SDS011;5143;42.584;23.164;2023-03-21T08:38:31;19.13;;;9.03;;
10201;SDS011;5143;42.584;23.164;2023-03-21T08:40:58;18.87;;;8.23;;
10201;SDS011;5143;42.584;23.164;2023-03-21T08:43:25;22.33;;;8.00;;
10201;SDS011;5143;42.584;23.164;2023-03-21T08:45:52;18.63;;;8.50;;
10201;SDS011;5143;42.584;23.164;2023-03-21T08:48:21;21.50;;;8.30;;
10201;SDS011;5143;42.584;23.164;2023-03-21T08:50:48;29.70;;;9.00;;
10201;SDS011;5143;42.584;23.164;2023-03-21T08:53:15;27.00;;;9.27;;
10201;SDS011;5143;42.584;23.164;2023-03-21T08:55:42;36.43;;;9.83;;
10201;SDS011;5143;42.584;23.164;2023-03-21T08:58:08;30.57;;;9.03;;
10201;SDS011;5143;42.584;23.164;2023-03-21T09:00:35;31.13;;;9.47;;
10201;SDS011;5143;42.584;23.164;2023-03-21T09:03:02;44.40;;;16.83;;
10201;SDS011;5143;42.584;23.164;2023-03-21T09:05:30;28.27;;;10.07;;
10201;SDS011;5143;42.584;23.164;2023-03-21T09:07:57;22.23;;;8.93;;
10201;SDS011;5143;42.584;23.164;2023-03-21T09:10:25;21.27;;;8.73;;
10201;SDS011;5143;42.584;23.164;2023-03-21T09:12:53;18.30;;;8.30;;
10201;SDS011;5143;42.584;23.164;2023-03-21T09:15:21;25.13;;;9.67;;
10201;SDS011;5143;42.584;23.164;2023-03-21T09:17:49;17.33;;;6.93;;
10201;SDS011;5143;42.584;23.164;2023-03-21T09:20:17;20.53;;;7.47;;
10201;SDS011;5143;42.584;23.164;2023-03-21T09:22:51;21.23;;;8.23;;
10201;SDS011;5143;42.584;23.164;2023-03-21T09:25:19;13.03;;;5.13;;
10201;SDS011;5143;42.584;23.164;2023-03-21T09:27:45;19.50;;;5.00;;
10201;SDS011;5143;42.584;23.164;2023-03-21T09:30:13;17.07;;;5.23;;
10201;SDS011;5143;42.584;23.164;2023-03-21T09:32:42;14.47;;;6.50;;
10201;SDS011;5143;42.584;23.164;2023-03-21T09:35:12;19.27;;;5.87;;
10201;SDS011;5143;42.584;23.164;2023-03-21T09:37:40;16.87;;;7.30;;
10201;SDS011;5143;42.584;23.164;2023-03-21T09:40:12;18.60;;;7.03;;
10201;SDS011;5143;42.584;23.164;2023-03-21T09:42:45;17.77;;;7.00;;
10201;SDS011;5143;42.584;23.164;2023-03-21T09:45:20;14.57;;;6.60;;
10201;SDS011;5143;42.584;23.164;2023-03-21T09:47:52;9.07;;;4.47;;
10201;SDS011;5143;42.584;23.164;2023-03-21T09:50:21;10.87;;;5.13;;
10201;SDS011;5143;42.584;23.164;2023-03-21T09:52:53;7.87;;;4.70;;
10201;SDS011;5143;42.584;23.164;2023-03-21T09:55:24;11.43;;;4.77;;
10201;SDS011;5143;42.584;23.164;2023-03-21T09:57:57;9.63;;;4.93;;
10201;SDS011;5143;42.584;23.164;2023-03-21T10:00:33;7.20;;;4.70;;
10201;SDS011;5143;42.584;23.164;2023-03-21T10:03:04;17.40;;;5.30;;
10201;SDS011;5143;42.584;23.164;2023-03-21T10:05:40;10.73;;;4.87;;
10201;SDS011;5143;42.584;23.164;2023-03-21T10:08:13;7.17;;;5.00;;
10201;SDS011;5143;42.584;23.164;2023-03-21T10:10:48;10.27;;;5.20;;
10201;SDS011;5143;42.584;23.164;2023-03-21T10:13:19;10.20;;;5.43;;
10201;SDS011;5143;42.584;23.164;2023-03-21T10:15:47;12.57;;;5.17;;
10201;SDS011;5143;42.584;23.164;2023-03-21T10:18:17;11.00;;;5.70;;
10201;SDS011;5143;42.584;23.164;2023-03-21T10:20:48;9.50;;;4.77;;
10201;SDS011;5143;42.584;23.164;2023-03-21T10:23:15;8.30;;;4.70;;
10201;SDS011;5143;42.584;23.164;2023-03-21T10:25:48;7.40;;;4.87;;
10201;SDS011;5143;42.584;23.164;2023-03-21T10:28:19;11.17;;;4.67;;
10201;SDS011;5143;42.584;23.164;2023-03-21T10:30:48;7.50;;;4.80;;
10201;SDS011;5143;42.584;23.164;2023-03-21T10:33:18;8.87;;;5.07;;
10201;SDS011;5143;42.584;23.164;2023-03-21T10:35:48;10.80;;;5.00;;
10201;SDS011;5143;42.584;23.164;2023-03-21T10:38:17;12.00;;;4.80;;
10201;SDS011;5143;42.584;23.164;2023-03-21T10:40:47;15.80;;;4.70;;
10201;SDS011;5143;42.584;23.164;2023-03-21T10:43:15;6.57;;;4.10;;
10201;SDS011;5143;42.584;23.164;2023-03-21T10:45:44;11.37;;;5.20;;
10201;SDS011;5143;42.584;23.164;2023-03-21T10:48:12;12.07;;;4.97;;
10201;SDS011;5143;42.584;23.164;2023-03-21T10:50:39;8.27;;;5.07;;
10201;SDS011;5143;42.584;23.164;2023-03-21T10:53:10;8.67;;;4.77;;
10201;SDS011;5143;42.584;23.164;2023-03-21T10:55:45;6.60;;;3.90;;
10201;SDS011;5143;42.584;23.164;2023-03-21T10:58:18;14.37;;;4.93;;
10201;SDS011;5143;42.584;23.164;2023-03-21T11:00:53;11.63;;;4.97;;
10201;SDS011;5143;42.584;23.164;2023-03-21T11:03:23;16.90;;;5.07;;
10201;SDS011;5143;42.584;23.164;2023-03-21T11:05:56;5.90;;;4.10;;
10201;SDS011;5143;42.584;23.164;2023-03-21T11:08:26;14.80;;;4.80;;
10201;SDS011;5143;42.584;23.164;2023-03-21T11:10:58;9.50;;;4.60;;
10201;SDS011;5143;42.584;23.164;2023-03-21T11:13:32;7.23;;;4.37;;
10201;SDS011;5143;42.584;23.164;2023-03-21T11:16:07;8.13;;;4.40;;
10201;SDS011;5143;42.584;23.164;2023-03-21T11:18:38;8.77;;;4.10;;
10201;SDS011;5143;42.584;23.164;2023-03-21T11:21:07;12.53;;;4.30;;
10201;SDS011;5143;42.584;23.164;2023-03-21T11:23:37;12.93;;;4.77;;
10201;SDS011;5143;42.584;23.164;2023-03-21T11:26:09;7.93;;;5.00;;
10201;SDS011;5143;42.584;23.164;2023-03-21T11:28:42;8.50;;;4.80;;
10201;SDS011;5143;42.584;23.164;2023-03-21T11:31:09;7.87;;;4.53;;
10201;SDS011;5143;42.584;23.164;2023-03-21T11:33:37;12.27;;;5.00;;
10201;SDS011;5143;42.584;23.164;2023-03-21T11:36:23;9.53;;;5.13;;
10201;SDS011;5143;42.584;23.164;2023-03-21T11:38:56;7.87;;;4.37;;
10201;SDS011;5143;42.584;23.164;2023-03-21T11:41:29;14.20;;;4.77;;
10201;SDS011;5143;42.584;23.164;2023-03-21T11:43:57;8.93;;;4.93;;
10201;SDS011;5143;42.584;23.164;2023-03-21T11:46:25;10.30;;;5.37;;
10201;SDS011;5143;42.584;23.164;2023-03-21T11:48:53;9.57;;;5.43;;
10201;SDS011;5143;42.584;23.164;2023-03-21T11:51:21;12.13;;;5.97;;
10201;SDS011;5143;42.584;23.164;2023-03-21T11:53:56;7.60;;;5.50;;
10201;SDS011;5143;42.584;23.164;2023-03-21T11:56:33;8.10;;;5.53;;
10201;SDS011;5143;42.584;23.164;2023-03-21T11:59:06;25.77;;;7.73;;
10201;SDS011;5143;42.584;23.164;2023-03-21T12:01:47;28.20;;;5.80;;
10201;SDS011;5143;42.584;23.164;2023-03-21T12:04:39;10.90;;;5.93;;
10201;SDS011;5143;42.584;23.164;2023-03-21T12:07:22;12.77;;;5.60;;
10201;SDS011;5143;42.584;23.164;2023-03-21T12:10:03;11.37;;;6.63;;
10201;SDS011;5143;42.584;23.164;2023-03-21T12:12:43;11.17;;;5.70;;
10201;SDS011;5143;42.584;23.164;2023-03-21T12:15:20;11.77;;;6.10;;
10201;SDS011;5143;42.584;23.164;2023-03-21T12:17:55;12.70;;;6.00;;
10201;SDS011;5143;42.584;23.164;2023-03-21T12:20:30;14.20;;;6.00;;
10201;SDS011;5143;42.584;23.164;2023-03-21T12:23:07;9.00;;;5.87;;
10201;SDS011;5143;42.584;23.164;2023-03-21T12:25:46;9.50;;;5.97;;
10201;SDS011;5143;42.584;23.164;2023-03-21T12:28:25;13.93;;;6.00;;
10201;SDS011;5143;42.584;23.164;2023-03-21T12:30:59;11.00;;;5.60;;
10201;SDS011;5143;42.584;23.164;2023-03-21T12:33:39;8.57;;;5.10;;
10201;SDS011;5143;42.584;23.164;2023-03-21T12:36:18;10.27;;;5.70;;
10201;SDS011;5143;42.584;23.164;2023-03-21T12:38:56;9.30;;;5.47;;
10201;SDS011;5143;42.584;23.164;2023-03-21T12:41:38;10.23;;;5.00;;
10201;SDS011;5143;42.584;23.164;2023-03-21T12:44:12;10.07;;;5.53;;
10201;SDS011;5143;42.584;23.164;2023-03-21T12:46:42;9.83;;;5.37;;
10201;SDS011;5143;42.584;23.164;2023-03-21T12:49:13;9.37;;;5.70;;
10201;SDS011;5143;42.584;23.164;2023-03-21T12:51:45;13.57;;;5.57;;
10201;SDS011;5143;42.584;23.164;2023-03-21T12:54:16;12.13;;;5.00;;
10201;SDS011;5143;42.584;23.164;2023-03-21T12:56:53;5.40;;;4.03;;
10201;SDS011;5143;42.584;23.164;2023-03-21T12:59:30;7.53;;;4.60;;
10201;SDS011;5143;42.584;23.164;2023-03-21T13:02:05;10.23;;;4.50;;
10201;SDS011;5143;42.584;23.164;2023-03-21T13:04:45;6.13;;;4.27;;
10201;SDS011;5143;42.584;23.164;2023-03-21T13:07:17;7.87;;;4.77;;
10201;SDS011;5143;42.584;23.164;2023-03-21T13:09:46;18.67;;;5.83;;
10201;SDS011;5143;42.584;23.164;2023-03-21T13:12:19;7.70;;;4.83;;
10201;SDS011;5143;42.584;23.164;2023-03-21T13:15:00;16.27;;;4.83;;
10201;SDS011;5143;42.584;23.164;2023-03-21T13:17:40;7.40;;;4.60;;
10201;SDS011;5143;42.584;23.164;2023-03-21T13:20:16;8.60;;;4.70;;
10201;SDS011;5143;42.584;23.164;2023-03-21T13:22:48;10.93;;;5.53;;
10201;SDS011;5143;42.584;23.164;2023-03-21T13:25:16;9.20;;;4.17;;
10201;SDS011;5143;42.584;23.164;2023-03-21T13:27:49;15.60;;;4.87;;
10201;SDS011;5143;42.584;23.164;2023-03-21T13:30:19;9.03;;;4.50;;
10201;SDS011;5143;42.584;23.164;2023-03-21T13:32:47;8.70;;;4.17;;
10201;SDS011;5143;42.584;23.164;2023-03-21T13:35:17;8.37;;;4.40;;
10201;SDS011;5143;42.584;23.164;2023-03-21T13:37:48;10.67;;;4.33;;
10201;SDS011;5143;42.584;23.164;2023-03-21T13:40:20;10.10;;;4.20;;
10201;SDS011;5143;42.584;23.164;2023-03-21T13:42:51;7.70;;;3.63;;
10201;SDS011;5143;42.584;23.164;2023-03-21T13:45:26;21.27;;;4.97;;
10201;SDS011;5143;42.584;23.164;2023-03-21T13:47:56;12.30;;;4.87;;
10201;SDS011;5143;42.584;23.164;2023-03-21T13:50:25;7.67;;;4.40;;
10201;SDS011;5143;42.584;23.164;2023-03-21T13:55:46;7.50;;;4.30;;
10201;SDS011;5143;42.584;23.164;2023-03-21T13:58:23;7.50;;;3.73;;
10201;SDS011;5143;42.584;23.164;2023-03-21T14:01:08;13.47;;;4.00;;
10201;SDS011;5143;42.584;23.164;2023-03-21T14:03:48;11.77;;;4.37;;
10201;SDS011;5143;42.584;23.164;2023-03-21T14:06:15;6.63;;;4.30;;
10201;SDS011;5143;42.584;23.164;2023-03-21T14:08:44;9.50;;;4.37;;
10201;SDS011;5143;42.584;23.164;2023-03-21T14:11:15;7.17;;;4.33;;
10201;SDS011;5143;42.584;23.164;2023-03-21T14:13:44;9.07;;;3.90;;
10201;SDS011;5143;42.584;23.164;2023-03-21T14:16:14;9.50;;;4.37;;
10201;SDS011;5143;42.584;23.164;2023-03-21T14:18:43;6.43;;;4.13;;
10201;SDS011;5143;42.584;23.164;2023-03-21T14:21:13;9.00;;;4.57;;
10201;SDS011;5143;42.584;23.164;2023-03-21T14:23:42;12.50;;;4.30;;
10201;SDS011;5143;42.584;23.164;2023-03-21T14:26:09;9.53;;;4.70;;
10201;SDS011;5143;42.584;23.164;2023-03-21T14:28:37;6.17;;;3.67;;
10201;SDS011;5143;42.584;23.164;2023-03-21T14:31:11;11.73;;;4.73;;
10201;SDS011;5143;42.584;23.164;2023-03-21T14:33:44;11.07;;;4.37;;
10201;SDS011;5143;42.584;23.164;2023-03-21T14:36:14;13.67;;;4.70;;
10201;SDS011;5143;42.584;23.164;2023-03-21T14:38:43;5.97;;;4.00;;
10201;SDS011;5143;42.584;23.164;2023-03-21T14:41:20;10.33;;;4.67;;
10201;SDS011;5143;42.584;23.164;2023-03-21T14:46:40;11.43;;;4.53;;
10201;SDS011;5143;42.584;23.164;2023-03-21T14:49:12;13.53;;;6.87;;
10201;SDS011;5143;42.584;23.164;2023-03-21T14:51:44;44.90;;;32.13;;
10201;SDS011;5143;42.584;23.164;2023-03-21T14:54:12;43.87;;;27.00;;
10201;SDS011;5143;42.584;23.164;2023-03-21T14:56:42;13.87;;;7.40;;
10201;SDS011;5143;42.584;23.164;2023-03-21T14:59:12;10.70;;;5.37;;
10201;SDS011;5143;42.584;23.164;2023-03-21T15:01:43;11.17;;;5.80;;
10201;SDS011;5143;42.584;23.164;2023-03-21T15:04:11;15.77;;;5.50;;
10201;SDS011;5143;42.584;23.164;2023-03-21T15:06:48;6.27;;;4.70;;
10201;SDS011;5143;42.584;23.164;2023-03-21T15:09:21;16.50;;;5.73;;